createdAt,value
2018-07-15T09:34:05.404Z,28.92
2018-07-15T09:36:33.759Z,28.99
2018-07-15T09:39:02.109Z,28.87
2018-07-15T09:41:30.710Z,28.99
2018-07-15T09:43:58.977Z,28.97
2018-07-15T09:46:27.361Z,29.03
2018-07-15T09:48:55.747Z,29.19
2018-07-15T09:51:24.109Z,29.24
2018-07-15T09:53:52.384Z,29.31
2018-07-15T09:56:20.662Z,29.01
2018-07-15T09:58:49.154Z,29.05
2018-07-15T10:01:17.313Z,29.08
2018-07-15T10:03:45.596Z,29.17
2018-07-15T10:06:13.768Z,29.28
2018-07-15T10:08:42.055Z,29.33
2018-07-15T10:11:10.318Z,29.47
2018-07-15T10:13:38.597Z,29.63
2018-07-15T10:16:06.865Z,29.44
2018-07-15T10:18:35.149Z,29.43
2018-07-15T10:21:03.428Z,29.43
2018-07-15T10:23:31.500Z,29.60
2018-07-15T10:25:59.453Z,29.67
2018-07-15T10:28:27.286Z,29.74
2018-07-15T10:30:55.501Z,29.75
2018-07-15T10:33:23.772Z,29.75
2018-07-15T10:35:52.046Z,29.78
2018-07-15T10:38:20.320Z,29.83
2018-07-15T10:40:48.705Z,29.92
2018-07-15T10:43:17.081Z,29.79
2018-07-15T10:45:45.462Z,29.63
2018-07-15T10:48:13.725Z,29.56
2018-07-15T10:50:42.014Z,29.71
2018-07-15T10:53:10.399Z,29.75
2018-07-15T10:55:38.666Z,29.90
2018-07-15T10:58:06.942Z,29.94
2018-07-15T11:00:35.310Z,29.82
2018-07-15T11:03:03.604Z,29.76
2018-07-15T11:05:31.975Z,29.90
2018-07-15T11:08:00.239Z,29.95
2018-07-15T11:10:28.216Z,29.88
2018-07-15T11:12:56.586Z,29.64
2018-07-15T11:15:24.726Z,29.70
2018-07-15T11:17:53.034Z,29.78
2018-07-15T11:20:21.314Z,29.74
2018-07-15T11:22:49.684Z,29.88
2018-07-15T11:25:17.866Z,29.89
2018-07-15T11:27:46.247Z,29.95
2018-07-15T11:30:14.617Z,29.89
2018-07-15T11:32:42.483Z,29.84
2018-07-15T11:35:10.848Z,29.81
2018-07-15T11:37:39.123Z,29.99
2018-07-15T11:40:07.530Z,29.80
2018-07-15T11:42:35.698Z,29.63
2018-07-15T11:45:04.295Z,29.68
2018-07-15T11:47:32.646Z,29.77
2018-07-15T11:50:00.930Z,29.83
2018-07-15T11:52:29.193Z,29.96
2018-07-15T11:54:57.508Z,30.00
2018-07-15T11:57:25.858Z,29.98
2018-07-15T11:59:54.239Z,30.09
2018-07-15T12:02:22.746Z,30.07
2018-07-15T12:04:50.987Z,30.18
2018-07-15T12:07:19.258Z,30.22
2018-07-15T12:09:47.584Z,30.41
2018-07-15T12:12:15.904Z,30.29
2018-07-15T12:14:44.199Z,30.39
2018-07-15T12:17:12.677Z,30.39
2018-07-15T12:19:40.857Z,30.32
2018-07-15T12:22:09.227Z,30.19
2018-07-15T12:24:37.654Z,30.21
2018-07-15T12:27:05.865Z,30.07
2018-07-15T12:29:34.255Z,29.94
2018-07-15T12:32:02.533Z,29.93
2018-07-15T12:34:30.569Z,29.98
2018-07-15T12:36:59.090Z,30.01
2018-07-15T12:39:27.354Z,29.91
2018-07-15T12:41:55.752Z,30.01
2018-07-15T12:44:24.148Z,30.12
2018-07-15T12:46:52.416Z,30.25
2018-07-15T12:49:20.663Z,30.31
2018-07-15T12:51:49.007Z,30.29
2018-07-15T12:54:17.455Z,30.27
2018-07-15T12:56:45.936Z,30.22
2018-07-15T12:59:14.318Z,30.36
2018-07-15T13:01:42.895Z,30.23
2018-07-15T13:04:11.275Z,30.22
2018-07-15T13:06:39.867Z,30.18
2018-07-15T13:09:08.331Z,30.32
2018-07-15T13:11:36.634Z,30.36
2018-07-15T13:14:04.880Z,30.52
2018-07-15T13:16:33.266Z,30.58
2018-07-15T13:19:01.678Z,30.41
2018-07-15T13:21:29.815Z,30.64
2018-07-15T13:23:58.287Z,30.72
2018-07-15T13:26:26.699Z,30.57
2018-07-15T13:28:55.142Z,30.50
2018-07-15T13:31:23.421Z,30.32
2018-07-15T13:33:51.954Z,30.27
2018-07-15T13:36:20.190Z,30.49
2018-07-15T13:38:48.671Z,30.63
2018-07-15T13:41:16.962Z,30.38
2018-07-15T13:43:45.524Z,30.36
2018-07-15T13:46:13.862Z,30.39
2018-07-15T13:48:42.387Z,30.44
2018-07-15T13:51:10.643Z,30.34
2018-07-15T13:53:39.244Z,30.40
2018-07-15T13:56:07.618Z,30.42
2018-07-15T13:58:36.027Z,30.48
2018-07-15T14:01:04.475Z,30.52
2018-07-15T14:03:32.742Z,30.55
2018-07-15T14:06:01.032Z,30.62
2018-07-15T14:08:29.302Z,30.43
2018-07-15T14:10:57.671Z,30.53
2018-07-15T14:13:25.979Z,30.52
2018-07-15T14:15:54.406Z,30.62
2018-07-15T14:18:22.916Z,30.56
2018-07-15T14:20:51.199Z,30.63
2018-07-15T14:23:19.462Z,30.70
2018-07-15T14:25:47.743Z,30.71
2018-07-15T14:28:16.210Z,30.89
2018-07-15T14:30:44.569Z,30.73
2018-07-15T14:33:13.082Z,30.66
2018-07-15T14:35:41.491Z,30.76
2018-07-15T14:38:09.529Z,30.70
2018-07-15T14:40:37.996Z,30.78
2018-07-15T14:43:06.527Z,30.80
2018-07-15T14:45:40.176Z,30.77
2018-07-15T14:48:08.394Z,30.79
2018-07-15T14:50:36.740Z,30.76
2018-07-15T14:53:05.106Z,30.60
2018-07-15T14:55:33.418Z,30.63
2018-07-15T14:58:01.768Z,30.71
2018-07-15T15:00:29.846Z,30.73
2018-07-15T15:02:58.142Z,30.63
2018-07-15T15:05:26.604Z,30.59
2018-07-15T15:07:54.522Z,30.59
2018-07-15T15:10:23.091Z,30.61
2018-07-15T15:12:51.326Z,30.69
2018-07-15T15:15:19.402Z,30.67
2018-07-15T15:17:47.636Z,30.50
2018-07-15T15:20:16.203Z,30.58
2018-07-15T15:22:44.199Z,30.53
2018-07-15T15:25:12.630Z,30.54
2018-07-15T15:27:41.081Z,30.46
2018-07-15T15:30:09.392Z,30.50
2018-07-15T15:32:37.631Z,30.48
2018-07-15T15:35:06.009Z,30.37
2018-07-15T15:37:34.498Z,30.48
2018-07-15T15:40:02.875Z,30.44
2018-07-15T15:42:31.196Z,30.46
2018-07-15T15:44:59.524Z,30.45
2018-07-15T15:47:28.001Z,30.41
2018-07-15T15:49:56.298Z,30.33
2018-07-15T15:52:24.853Z,30.29
2018-07-15T15:54:53.240Z,30.26
2018-07-15T15:57:21.534Z,30.24
2018-07-15T15:59:49.985Z,30.23
2018-07-15T16:02:18.260Z,30.28
2018-07-15T16:04:46.883Z,30.23
2018-07-15T16:07:15.119Z,30.16
2018-07-15T16:09:43.606Z,30.17
2018-07-15T16:12:12.010Z,30.19
2018-07-15T16:14:40.355Z,30.12
2018-07-15T16:17:08.767Z,30.18
2018-07-15T16:19:37.143Z,30.08
2018-07-15T16:22:05.593Z,30.05
2018-07-15T16:24:34.919Z,30.08
2018-07-15T16:27:03.328Z,30.00
2018-07-15T16:29:31.647Z,29.96
2018-07-15T16:31:59.921Z,29.89
2018-07-15T16:34:28.325Z,29.87
2018-07-15T16:36:56.889Z,29.93
2018-07-15T16:39:25.151Z,29.82
2018-07-15T16:41:53.504Z,29.78
2018-07-15T16:44:21.767Z,29.84
2018-07-15T16:46:50.415Z,29.77
2018-07-15T16:49:18.882Z,29.64
2018-07-15T16:51:47.361Z,29.66
2018-07-15T16:54:15.733Z,29.64
2018-07-15T16:56:44.116Z,29.71
2018-07-15T16:59:12.495Z,29.72
2018-07-15T17:01:40.982Z,29.85
2018-07-15T17:04:09.344Z,29.88
2018-07-15T17:06:37.724Z,29.86
2018-07-15T17:09:06.373Z,29.85
2018-07-15T17:11:35.155Z,29.88
2018-07-15T17:14:03.500Z,29.98
2018-07-15T17:16:31.474Z,30.01
2018-07-15T17:18:59.824Z,29.84
2018-07-15T17:21:28.094Z,29.78
2018-07-15T17:23:56.019Z,29.76
2018-07-15T17:26:24.337Z,29.81
2018-07-15T17:28:52.716Z,29.74
2018-07-15T17:31:20.591Z,29.42
2018-07-15T17:33:48.826Z,29.27
2018-07-15T17:36:17.506Z,29.27
2018-07-15T17:38:45.381Z,28.97
2018-07-15T17:41:13.749Z,28.90
2018-07-15T17:43:42.196Z,28.99
2018-07-15T17:46:10.309Z,29.01
2018-07-15T17:48:38.617Z,28.97
2018-07-15T17:51:06.984Z,28.93
2018-07-15T17:53:35.871Z,29.03
2018-07-15T17:56:04.357Z,29.18
2018-07-15T17:58:32.706Z,29.01
2018-07-15T18:01:01.159Z,28.76
2018-07-15T18:03:29.501Z,28.55
2018-07-15T18:05:58.066Z,28.34
2018-07-15T18:08:26.389Z,28.16
2018-07-15T18:10:54.940Z,28.02
2018-07-15T18:13:23.182Z,27.95
2018-07-15T18:15:51.726Z,27.84
2018-07-15T18:18:20.177Z,27.74
2018-07-15T18:20:48.553Z,27.70
2018-07-15T18:23:17.035Z,27.63
2018-07-15T18:25:45.310Z,27.58
2018-07-15T18:28:13.718Z,27.57
2018-07-15T18:30:42.071Z,27.50
2018-07-15T18:33:10.333Z,27.49
2018-07-15T18:35:38.699Z,27.43
2018-07-15T18:38:07.193Z,27.39
2018-07-15T18:40:35.582Z,27.35
2018-07-15T18:43:04.101Z,27.34
2018-07-15T18:45:32.440Z,27.32
2018-07-15T18:48:00.890Z,27.30
2018-07-15T18:50:29.293Z,27.31
2018-07-15T18:52:57.673Z,27.30
2018-07-15T18:55:26.292Z,27.24
2018-07-15T18:57:54.490Z,27.31
2018-07-15T19:00:22.776Z,27.34
2018-07-15T19:02:50.652Z,27.32
2018-07-15T19:05:18.818Z,27.35
2018-07-15T19:07:47.198Z,27.40
2018-07-15T19:10:15.262Z,27.34
2018-07-15T19:12:43.583Z,27.15
2018-07-15T19:15:11.626Z,27.16
2018-07-15T19:17:39.517Z,27.27
2018-07-15T19:20:07.849Z,27.21
2018-07-15T19:22:36.161Z,27.10
2018-07-15T19:25:04.126Z,26.95
2018-07-15T19:27:32.470Z,26.85
2018-07-15T19:30:00.779Z,26.85
2018-07-15T19:32:28.662Z,26.78
2018-07-15T19:34:56.778Z,26.65
2018-07-15T19:37:25.089Z,26.51
2018-07-15T19:39:53.339Z,26.21
2018-07-15T19:42:21.604Z,26.20
2018-07-15T19:44:49.935Z,26.22
2018-07-15T19:47:18.149Z,26.06
2018-07-15T19:49:46.430Z,26.04
2018-07-15T19:52:14.745Z,26.08
2018-07-15T19:54:43.187Z,25.91
2018-07-15T19:57:11.469Z,25.72
2018-07-15T19:59:39.771Z,25.78
2018-07-15T20:02:08.018Z,25.53
2018-07-15T20:04:36.301Z,25.57
2018-07-15T20:07:04.606Z,25.59
2018-07-15T20:09:32.739Z,25.20
2018-07-15T20:12:01.023Z,25.16
2018-07-15T20:14:29.330Z,25.20
2018-07-15T20:16:57.674Z,25.36
2018-07-15T20:19:26.045Z,25.34
2018-07-15T20:21:54.353Z,25.30
2018-07-15T20:24:22.813Z,25.31
2018-07-15T20:26:51.077Z,25.14
2018-07-15T20:29:19.385Z,24.96
2018-07-15T20:31:47.725Z,24.92
2018-07-15T20:34:16.005Z,25.11
2018-07-15T20:36:44.313Z,25.15
2018-07-15T20:39:12.650Z,25.11
2018-07-15T20:41:40.929Z,25.14
2018-07-15T20:44:09.479Z,25.12
2018-07-15T20:46:37.618Z,25.04
2018-07-15T20:49:05.962Z,25.03
2018-07-15T20:51:34.163Z,24.97
2018-07-15T20:54:02.514Z,25.00
2018-07-15T20:56:30.594Z,24.82
2018-07-15T20:58:58.759Z,24.74
2018-07-15T21:01:27.041Z,24.69
2018-07-15T21:03:59.285Z,24.63
2018-07-15T21:06:27.817Z,24.60
2018-07-15T21:08:56.155Z,24.66
2018-07-15T21:11:24.573Z,24.44
2018-07-15T21:13:52.616Z,24.26
2018-07-15T21:16:21.255Z,24.16
2018-07-15T21:18:49.738Z,24.29
2018-07-15T21:21:17.984Z,24.33
2018-07-15T21:23:46.535Z,24.00
2018-07-15T21:26:15.045Z,24.09
2018-07-15T21:28:43.218Z,24.22
2018-07-15T21:31:11.805Z,24.32
2018-07-15T21:33:40.496Z,24.17
2018-07-15T21:42:57.091Z,24.16
2018-07-15T21:45:25.718Z,24.05
2018-07-15T21:47:54.298Z,23.80
2018-07-15T21:50:22.879Z,23.78
2018-07-15T21:52:51.527Z,23.87
2018-07-15T21:55:20.353Z,24.00
2018-07-15T21:57:48.796Z,24.04
2018-07-15T22:00:17.522Z,23.95
2018-07-15T22:02:46.404Z,23.90
2018-07-15T22:05:15.092Z,24.06
2018-07-15T22:07:54.248Z,23.89
2018-07-15T22:10:42.278Z,23.97
2018-07-15T22:13:10.536Z,23.82
2018-07-15T22:15:39.020Z,23.90
2018-07-15T22:18:07.358Z,23.87
2018-07-15T22:20:36.079Z,23.59
2018-07-15T22:23:04.564Z,23.38
2018-07-15T22:25:32.910Z,23.49
2018-07-15T22:28:01.641Z,23.49
2018-07-15T22:30:29.973Z,23.55
2018-07-15T22:32:58.346Z,23.38
2018-07-15T22:35:26.671Z,23.39
2018-07-15T22:37:54.998Z,23.56
2018-07-15T22:40:23.269Z,23.28
2018-07-15T22:42:51.661Z,23.22
2018-07-15T22:45:19.915Z,23.04
2018-07-15T22:47:48.238Z,22.88
2018-07-15T22:50:16.473Z,22.98
2018-07-15T22:52:44.766Z,23.14
2018-07-15T22:55:13.074Z,23.26
2018-07-15T22:57:41.414Z,23.30
2018-07-15T23:00:09.781Z,23.51
2018-07-15T23:02:38.195Z,23.45
2018-07-15T23:05:44.625Z,23.55
2018-07-15T23:08:12.948Z,23.80
2018-07-15T23:10:41.186Z,23.89
2018-07-15T23:13:10.031Z,23.96
2018-07-15T23:15:38.761Z,24.00
2018-07-15T23:18:07.045Z,23.89
2018-07-15T23:20:36.066Z,23.81
2018-07-15T23:23:05.209Z,23.74
2018-07-15T23:25:33.649Z,23.55
2018-07-15T23:28:02.333Z,23.42
2018-07-15T23:30:32.306Z,23.40
2018-07-15T23:33:00.933Z,23.44
2018-07-15T23:35:29.265Z,23.61
2018-07-15T23:37:57.485Z,23.71
2018-07-15T23:40:25.913Z,23.69
2018-07-15T23:42:55.020Z,23.59
2018-07-15T23:45:24.102Z,23.68
2018-07-15T23:47:52.633Z,23.54
2018-07-15T23:50:21.097Z,23.60
2018-07-15T23:52:49.378Z,23.47
2018-07-15T23:55:17.723Z,23.47
2018-07-15T23:57:46.041Z,23.48
